Time;durP1;ratioP1;P1;durP2;ratioP2;P2;SDS_P1;SDS_P2;PMS_P1;PMS_P2;Temp;Humidity;BMP_temperature;BMP_pressure;BME280_temperature;BME280_humidity;BME280_pressure;Samples;Min_cycle;Max_cycle;Signal;HPM_P1;HPM_P2
2022/06/01 00:00:47;;;;;;;9.95;6.60;;;;;;;17.16;70.51;95073.78;5001885;28;20230;-64
2022/06/01 00:03:12;;;;;;;8.80;6.38;;;;;;;17.09;70.79;95072.06;5000262;28;20251;-69
2022/06/01 00:05:38;;;;;;;7.13;6.28;;;;;;;17.08;70.59;95070.41;5001614;28;20242;-70
2022/06/01 00:08:04;;;;;;;9.10;6.05;;;;;;;17.09;70.55;95067.59;5009540;28;20284;-71
2022/06/01 00:10:29;;;;;;;8.70;5.93;;;;;;;16.96;70.53;95068.28;5035056;28;20245;-70
2022/06/01 00:12:55;;;;;;;8.00;6.22;;;;;;;16.81;70.70;95061.38;5001127;28;20222;-70
2022/06/01 00:15:22;;;;;;;7.45;6.22;;;;;;;16.69;71.24;95071.66;4991711;28;20226;-72
2022/06/01 00:17:48;;;;;;;11.02;5.45;;;;;;;16.74;71.03;95064.75;5033030;28;20222;-65
2022/06/01 00:20:14;;;;;;;10.68;5.88;;;;;;;16.87;70.37;95061.47;4999131;28;20599;-65
2022/06/01 00:22:41;;;;;;;8.30;5.03;;;;;;;16.87;69.44;95064.09;5002452;28;20214;-65
2022/06/01 00:25:07;;;;;;;7.05;5.18;;;;;;;16.90;69.32;95065.56;5007922;28;20559;-66
2022/06/01 00:27:34;;;;;;;7.30;5.20;;;;;;;16.83;68.88;95067.31;4994142;28;20336;-65
2022/06/01 00:30:00;;;;;;;7.38;4.93;;;;;;;16.77;68.52;95074.22;5003445;28;20253;-68
2022/06/01 00:32:25;;;;;;;6.95;4.53;;;;;;;16.74;69.02;95069.25;4997904;28;20242;-72
2022/06/01 00:34:50;;;;;;;10.48;4.45;;;;;;;16.74;68.40;95069.25;4999499;28;20229;-65
2022/06/01 00:37:17;;;;;;;8.70;5.07;;;;;;;16.64;68.36;95066.06;5007376;28;20234;-63
2022/06/01 00:39:44;;;;;;;6.20;4.70;;;;;;;16.58;68.63;95062.34;5000416;28;20226;-65
2022/06/01 00:42:11;;;;;;;5.20;4.47;;;;;;;16.55;67.39;95062.72;5003895;28;20226;-65
2022/06/01 00:44:36;;;;;;;8.82;4.70;;;;;;;16.52;66.85;95063.09;4991062;28;20259;-65
2022/06/01 00:47:02;;;;;;;5.55;4.45;;;;;;;16.51;66.91;95058.78;5000035;28;20233;-72
2022/06/01 00:49:28;;;;;;;5.60;4.43;;;;;;;16.54;66.39;95058.41;5000373;28;20245;-70
2022/06/01 00:51:54;;;;;;;6.63;4.07;;;;;;;16.34;66.87;95044.94;5001486;28;20466;-71
2022/06/01 00:54:21;;;;;;;8.07;4.15;;;;;;;16.30;67.22;95057.75;5001254;28;20234;-63
2022/06/01 00:56:50;;;;;;;7.68;4.50;;;;;;;16.16;67.56;95058.59;5015133;28;20219;-65
2022/06/01 00:59:22;;;;;;;5.00;4.05;;;;;;;16.23;67.55;95066.63;5001359;28;20225;-71
2022/06/01 01:01:49;;;;;;;8.18;4.32;;;;;;;16.23;67.44;95056.03;5036042;28;20230;-63
2022/06/01 01:04:15;;;;;;;5.05;3.65;;;;;;;16.28;67.61;95057.09;5001766;28;20202;-71
2022/06/01 01:06:42;;;;;;;4.82;4.20;;;;;;;16.46;67.12;95054.03;5015496;28;20442;-64
2022/06/01 01:09:09;;;;;;;5.85;3.85;;;;;;;16.37;67.32;95047.19;5003987;28;20309;-67
2022/06/01 01:11:49;;;;;;;5.43;4.22;;;;;;;16.31;67.03;95048.78;5033734;28;20238;-66
2022/06/01 01:14:20;;;;;;;4.82;4.10;;;;;;;16.31;66.96;95048.78;5035173;28;20304;-66
2022/06/01 01:16:50;;;;;;;7.35;4.32;;;;;;;16.51;66.00;95050.81;5008330;28;20230;-67
2022/06/01 01:19:34;;;;;;;7.05;3.88;;;;;;;16.29;66.34;95045.47;4994028;28;20206;-66
2022/06/01 01:22:11;;;;;;;7.10;3.78;;;;;;;16.23;66.05;95035.63;5002149;28;20269;-69
2022/06/01 01:25:04;;;;;;;4.95;3.63;;;;;;;16.19;66.05;95038.81;5005403;28;20485;-66
2022/06/01 01:27:30;;;;;;;6.53;3.95;;;;;;;16.07;66.25;95027.88;5034404;28;20499;-66
2022/06/01 01:29:55;;;;;;;4.35;3.67;;;;;;;16.03;66.40;95031.88;5003480;28;20261;-70
2022/06/01 01:32:20;;;;;;;5.45;3.60;;;;;;;16.06;66.39;95027.06;5004077;28;20233;-70
2022/06/01 01:34:46;;;;;;;6.22;3.58;;;;;;;15.91;66.59;95020.94;4993084;28;20226;-66
2022/06/01 01:37:21;;;;;;;8.98;4.00;;;;;;;16.00;66.74;95014.50;5005760;28;20214;-67
2022/06/01 01:39:46;;;;;;;5.35;3.97;;;;;;;15.85;67.37;95021.66;5033382;28;20276;-70
2022/06/01 01:42:11;;;;;;;5.70;3.88;;;;;;;15.88;68.23;95029.28;5006154;28;20226;-71
2022/06/01 01:44:54;;;;;;;5.65;4.22;;;;;;;15.87;68.16;95019.66;5003853;28;20242;-63
2022/06/01 01:47:19;;;;;;;6.70;4.18;;;;;;;15.85;68.59;95017.19;5002926;28;20241;-65
2022/06/01 01:49:45;;;;;;;8.30;4.10;;;;;;;15.73;69.07;95013.34;5006697;28;20281;-64
2022/06/01 01:52:17;;;;;;;5.53;4.57;;;;;;;15.78;68.83;95015.47;5003022;28;20261;-73
2022/06/01 01:54:56;;;;;;;5.13;4.00;;;;;;;15.73;68.89;95018.66;4992887;28;20227;-70
2022/06/01 01:57:47;;;;;;;6.90;3.80;;;;;;;15.64;69.04;95025.03;5003727;28;20234;-72
2022/06/01 02:00:48;;;;;;;7.63;4.13;;;;;;;15.72;68.39;95021.50;5032579;28;20226;-64
2022/06/01 02:03:36;;;;;;;4.97;3.80;;;;;;;15.69;69.13;95017.41;4960569;28;20523;-66
2022/06/01 02:06:09;;;;;;;4.50;3.70;;;;;;;15.79;68.92;95025.06;4957367;28;20235;-65
2022/06/01 02:08:48;;;;;;;7.22;4.53;;;;;;;15.82;68.76;95022.03;4989875;28;20222;-71
2022/06/01 02:14:17;;;;;;;10.20;4.55;;;;;;;15.67;69.38;95027.31;4996210;28;20281;-72
2022/06/01 02:16:49;;;;;;;8.82;4.10;;;;;;;15.59;69.62;95020.28;4982422;28;20241;-72
2022/06/01 02:19:23;;;;;;;8.60;4.00;;;;;;;15.61;69.68;95020.94;4980365;28;20203;-67
2022/06/01 02:21:54;;;;;;;8.05;4.07;;;;;;;15.68;69.79;95025.47;4976832;28;20281;-65
2022/06/01 02:24:21;;;;;;;8.02;4.18;;;;;;;15.69;69.79;95028.00;4983708;28;20310;-72
2022/06/01 02:26:49;;;;;;;7.88;4.53;;;;;;;15.74;69.02;95030.91;4978860;28;20231;-65
2022/06/01 02:29:22;;;;;;;7.05;4.53;;;;;;;15.61;69.73;95028.03;4981855;28;20246;-72
2022/06/01 02:31:50;;;;;;;8.57;4.40;;;;;;;15.62;69.94;95027.84;4980017;28;20230;-64
2022/06/01 02:34:17;;;;;;;7.50;4.55;;;;;;;15.55;70.12;95036.72;4976939;28;20249;-65
2022/06/01 02:36:44;;;;;;;5.40;4.72;;;;;;;15.52;70.82;95034.44;4979578;28;20232;-72
2022/06/01 02:39:14;;;;;;;9.65;4.75;;;;;;;15.54;70.42;95037.72;4985524;28;20253;-70
2022/06/01 02:44:24;;;;;;;9.90;5.00;;;;;;;15.46;70.63;95038.63;5005206;28;20232;-70
2022/06/01 02:46:50;;;;;;;6.65;4.25;;;;;;;15.48;70.93;95047.22;5003868;28;20219;-71
2022/06/01 02:49:17;;;;;;;12.35;5.57;;;;;;;15.51;70.67;95048.69;5004146;28;20226;-70
2022/06/01 02:51:44;;;;;;;8.05;5.43;;;;;;;15.42;70.66;95042.63;5003918;28;20225;-67
2022/06/01 02:54:09;;;;;;;6.95;4.70;;;;;;;15.35;70.86;95037.25;4999970;28;20230;-66
2022/06/01 02:56:35;;;;;;;9.98;4.93;;;;;;;15.23;71.24;95043.97;4997360;28;20269;-66
2022/06/01 02:59:00;;;;;;;9.55;4.68;;;;;;;15.28;70.24;95044.25;5002936;28;20258;-69
2022/06/01 03:01:26;;;;;;;5.25;4.30;;;;;;;15.36;69.41;95043.38;5002816;28;20214;-66
2022/06/01 03:03:53;;;;;;;8.38;4.32;;;;;;;15.32;68.80;95042.09;5005535;28;20205;-70
2022/06/01 03:06:19;;;;;;;7.30;4.47;;;;;;;15.41;68.11;95036.53;5002230;28;20239;-70
2022/06/01 03:08:45;;;;;;;6.28;4.43;;;;;;;15.42;67.84;95032.88;5000694;28;20219;-63
2022/06/01 03:11:12;;;;;;;15.10;4.22;;;;;;;15.40;67.77;95039.38;5035303;28;20316;-70
2022/06/01 03:13:38;;;;;;;4.93;3.90;;;;;;;15.31;67.98;95045.72;5001185;28;20210;-70
2022/06/01 03:16:04;;;;;;;6.43;3.78;;;;;;;15.25;67.88;95049.09;5001907;28;20205;-65
2022/06/01 03:18:31;;;;;;;6.50;3.38;;;;;;;15.33;68.04;95052.50;5006871;28;20477;-70
2022/06/01 03:20:57;;;;;;;5.18;3.88;;;;;;;15.51;67.17;95051.34;5000340;28;20345;-65
2022/06/01 03:23:24;;;;;;;9.90;4.07;;;;;;;15.51;67.42;95067.25;4999656;28;20296;-70
2022/06/01 03:25:50;;;;;;;7.60;4.60;;;;;;;15.55;67.86;95071.16;5000856;28;20226;-66
2022/06/01 03:28:16;;;;;;;7.60;4.03;;;;;;;15.35;69.01;95066.41;5002631;28;20217;-68
2022/06/01 03:30:43;;;;;;;10.45;4.63;;;;;;;15.52;68.86;95068.88;5005551;28;20257;-68
2022/06/01 03:33:10;;;;;;;7.22;4.53;;;;;;;15.48;68.88;95062.31;5000021;28;20229;-63
2022/06/01 03:35:37;;;;;;;5.10;3.95;;;;;;;15.38;69.41;95060.72;5004989;28;20246;-69
2022/06/01 03:38:03;;;;;;;6.03;4.03;;;;;;;15.40;69.80;95066.69;5002095;28;20683;-67
2022/06/01 03:40:31;;;;;;;6.72;4.28;;;;;;;15.39;69.64;95062.38;5000442;28;20294;-70
2022/06/01 03:42:57;;;;;;;8.52;4.28;;;;;;;15.33;69.85;95063.09;4999184;28;20341;-64
2022/06/01 03:48:08;;;;;;;7.70;4.47;;;;;;;15.42;69.87;95069.97;5000487;28;20743;-69
2022/06/01 03:50:35;;;;;;;8.80;4.85;;;;;;;15.53;69.36;95066.06;5002343;28;20321;-68
2022/06/01 03:53:02;;;;;;;7.70;5.15;;;;;;;15.72;68.36;95075.34;5031735;28;20261;-69
2022/06/01 03:55:28;;;;;;;14.55;5.47;;;;;;;15.85;67.63;95067.59;5001717;28;20202;-68
2022/06/01 03:57:54;;;;;;;7.00;5.45;;;;;;;15.90;67.64;95072.31;5016312;28;20269;-69
2022/06/01 04:00:23;;;;;;;8.07;5.47;;;;;;;15.82;68.12;95067.94;5001937;28;20214;-63
2022/06/01 04:02:49;;;;;;;6.93;5.30;;;;;;;15.84;68.42;95071.22;4992865;28;20238;-64
2022/06/01 04:05:16;;;;;;;7.78;5.38;;;;;;;15.80;68.33;95064.66;5004182;28;20230;-63
2022/06/01 04:07:41;;;;;;;6.40;5.13;;;;;;;15.84;68.68;95067.75;5004471;28;20278;-64
2022/06/01 04:10:08;;;;;;;8.98;5.13;;;;;;;15.69;69.90;95073.06;5006826;28;20211;-68
2022/06/01 04:12:34;;;;;;;6.13;5.35;;;;;;;15.65;69.60;95075.19;5001393;28;20222;-66
2022/06/01 04:14:59;;;;;;;6.68;5.70;;;;;;;15.76;69.96;95076.59;4999468;28;20236;-70
2022/06/01 04:17:25;;;;;;;7.45;5.47;;;;;;;15.82;69.89;95081.22;5001918;28;20222;-70
2022/06/01 04:19:50;;;;;;;7.28;5.22;;;;;;;15.92;69.85;95080.09;4999998;28;20218;-67
2022/06/01 04:22:16;;;;;;;7.55;5.47;;;;;;;16.01;69.47;95074.53;5002182;28;20337;-63
2022/06/01 04:24:42;;;;;;;9.77;5.63;;;;;;;16.08;69.53;95082.56;5000199;28;20268;-65
2022/06/01 04:27:08;;;;;;;6.85;5.40;;;;;;;16.25;68.65;95080.53;4997904;28;20636;-67
2022/06/01 04:29:34;;;;;;;9.45;6.22;;;;;;;16.19;68.89;95079.44;5001831;28;20228;-68
2022/06/01 04:32:11;;;;;;;5.70;5.05;;;;;;;16.34;68.01;95082.06;4997950;28;20257;-67
2022/06/01 04:34:36;;;;;;;9.05;5.88;;;;;;;16.44;68.17;95087.06;5001648;28;20264;-63
2022/06/01 04:37:02;;;;;;;8.15;5.88;;;;;;;16.48;67.74;95086.53;4998053;28;20206;-68
2022/06/01 04:39:28;;;;;;;9.98;5.80;;;;;;;16.49;67.44;95077.56;5003195;28;20541;-67
2022/06/01 04:41:53;;;;;;;7.30;6.07;;;;;;;16.54;66.57;95077.84;4996051;28;20277;-68
2022/06/01 04:44:19;;;;;;;8.60;6.07;;;;;;;16.57;66.58;95076.59;5001948;28;20249;-66
2022/06/01 04:46:45;;;;;;;7.05;5.50;;;;;;;16.56;66.97;95080.28;5006613;28;20254;-66
2022/06/01 04:49:10;;;;;;;8.60;6.10;;;;;;;16.53;67.02;95081.47;5003906;28;20217;-68
2022/06/01 04:51:36;;;;;;;10.90;6.10;;;;;;;16.19;68.73;95082.09;4999483;28;20234;-67
2022/06/01 04:54:02;;;;;;;7.80;6.85;;;;;;;16.21;68.27;95081.91;5002686;28;20253;-66
2022/06/01 04:56:28;;;;;;;10.32;6.55;;;;;;;16.48;67.78;95083.06;5006736;28;20234;-66
2022/06/01 04:58:53;;;;;;;9.43;6.18;;;;;;;16.59;67.93;95093.19;5002108;28;20234;-68
2022/06/01 05:01:22;;;;;;;10.38;6.88;;;;;;;16.54;67.40;95084.94;5007131;28;20254;-66
2022/06/01 05:03:48;;;;;;;11.32;6.45;;;;;;;16.63;67.02;95083.84;5009247;28;20232;-66
2022/06/01 05:06:13;;;;;;;14.05;7.85;;;;;;;16.76;66.51;95088.47;5004633;28;20755;-63
2022/06/01 05:08:39;;;;;;;9.43;6.65;;;;;;;16.88;65.99;95096.78;5003233;28;20237;-67
2022/06/01 05:11:04;;;;;;;9.63;7.57;;;;;;;16.87;66.05;95097.81;5003845;28;20588;-64
2022/06/01 05:13:30;;;;;;;9.25;7.80;;;;;;;16.96;66.35;95104.63;5007221;28;20198;-64
2022/06/01 05:15:58;;;;;;;12.15;7.55;;;;;;;16.89;66.74;95103.75;5006009;28;20298;-62
2022/06/01 05:18:24;;;;;;;11.85;8.35;;;;;;;16.98;66.37;95105.28;5004470;28;20256;-63
2022/06/01 05:20:50;;;;;;;8.68;7.78;;;;;;;17.00;67.03;95105.91;5002108;28;20302;-60
2022/06/01 05:23:17;;;;;;;9.02;8.00;;;;;;;17.09;66.55;95106.63;5012668;28;20309;-63
2022/06/01 05:25:44;;;;;;;13.30;8.65;;;;;;;17.04;66.48;95107.16;5000723;28;20250;-66
2022/06/01 05:28:11;;;;;;;12.90;8.95;;;;;;;17.15;66.75;95108.50;5035078;28;20214;-63
2022/06/01 05:30:36;;;;;;;15.15;8.63;;;;;;;17.29;66.42;95112.09;5000733;28;20231;-65
2022/06/01 05:33:03;;;;;;;9.75;8.73;;;;;;;17.35;66.12;95114.00;5039551;28;20276;-64
2022/06/01 05:35:28;;;;;;;13.07;8.50;;;;;;;17.23;66.22;95111.03;5031903;28;20223;-65
2022/06/01 05:37:54;;;;;;;13.13;11.30;;;;;;;17.15;66.42;95108.50;5000940;28;20223;-62
2022/06/01 05:40:19;;;;;;;13.35;10.98;;;;;;;17.24;65.85;95102.06;4986442;28;20261;-61
2022/06/01 05:42:45;;;;;;;12.02;10.77;;;;;;;17.31;66.05;95100.25;5001089;28;20735;-60
2022/06/01 05:45:10;;;;;;;11.88;10.13;;;;;;;17.41;65.82;95087.47;5001092;28;20226;-61
2022/06/01 05:47:37;;;;;;;13.70;11.05;;;;;;;17.53;65.46;95095.72;5003951;28;20318;-66
2022/06/01 05:50:05;;;;;;;13.45;11.18;;;;;;;17.57;65.51;95089.03;5002629;28;20227;-65
2022/06/01 05:52:31;;;;;;;14.50;10.63;;;;;;;17.79;64.88;95089.81;5020220;28;20285;-65
2022/06/01 05:54:56;;;;;;;14.45;10.45;;;;;;;17.85;64.65;95090.88;5006323;28;20642;-61
2022/06/01 05:57:22;;;;;;;16.38;9.63;;;;;;;17.87;64.55;95091.50;5015419;28;20223;-65
2022/06/01 05:59:47;;;;;;;14.80;9.40;;;;;;;17.78;64.70;95092.66;5034992;28;20230;-65
2022/06/01 06:02:13;;;;;;;16.38;9.90;;;;;;;17.79;64.15;95083.69;5002832;28;20227;-67
2022/06/01 06:04:38;;;;;;;10.77;8.70;;;;;;;17.94;63.79;95084.41;5000401;28;20268;-63
2022/06/01 06:07:04;;;;;;;12.30;8.05;;;;;;;17.93;63.71;95093.38;5001705;28;20229;-70
2022/06/01 06:09:30;;;;;;;10.30;8.38;;;;;;;18.06;63.52;95085.47;5000208;28;20218;-68
2022/06/01 06:11:56;;;;;;;14.23;8.95;;;;;;;18.08;63.73;95080.78;5002611;28;20227;-68
2022/06/01 06:14:21;;;;;;;15.20;9.38;;;;;;;18.14;63.46;95081.84;5002296;28;20226;-68
2022/06/01 06:16:47;;;;;;;12.63;9.30;;;;;;;18.22;63.18;95086.19;4991434;28;20222;-67
2022/06/01 06:19:15;;;;;;;11.63;8.13;;;;;;;18.29;62.76;95087.06;5000094;28;20391;-66
2022/06/01 06:21:41;;;;;;;12.70;8.55;;;;;;;18.37;62.57;95086.88;4999613;28;20266;-67
2022/06/01 06:24:16;;;;;;;14.73;11.20;;;;;;;18.41;62.41;95087.28;4999445;28;20305;-65
2022/06/01 06:26:44;;;;;;;13.73;11.80;;;;;;;18.44;63.15;95084.22;4990209;28;20232;-67
2022/06/01 06:29:11;;;;;;;16.92;10.48;;;;;;;18.29;63.06;95077.22;4994763;28;20326;-62
2022/06/01 06:31:38;;;;;;;15.75;9.25;;;;;;;18.27;62.91;95070.44;5034461;28;20237;-63
2022/06/01 06:34:04;;;;;;;12.50;9.82;;;;;;;18.40;62.53;95072.34;5006576;28;20233;-68
2022/06/01 06:36:29;;;;;;;14.20;11.82;;;;;;;18.47;62.31;95074.03;5002673;28;20620;-63
2022/06/01 06:38:55;;;;;;;13.15;9.77;;;;;;;18.65;62.00;95072.63;4999783;28;20223;-68
2022/06/01 06:41:21;;;;;;;12.38;10.68;;;;;;;18.72;62.38;95079.63;5003851;28;20234;-68
2022/06/01 06:43:47;;;;;;;16.67;10.60;;;;;;;18.78;63.05;95075.38;5000716;28;20226;-67
2022/06/01 06:46:16;;;;;;;18.10;13.35;;;;;;;18.89;62.82;95066.78;5003257;28;20211;-60
2022/06/01 06:48:44;;;;;;;17.23;11.27;;;;;;;18.83;63.09;95072.91;5000637;28;20250;-65
2022/06/01 06:51:10;;;;;;;13.27;11.68;;;;;;;18.83;63.30;95074.78;5004352;28;20270;-67
2022/06/01 06:53:36;;;;;;;15.20;10.40;;;;;;;18.90;62.78;95071.09;4992792;28;20234;-65
2022/06/01 06:56:02;;;;;;;16.30;9.95;;;;;;;19.00;62.15;95067.22;4994755;28;20219;-68
2022/06/01 06:58:28;;;;;;;12.27;10.27;;;;;;;19.05;62.08;95057.59;5001822;28;20214;-63
2022/06/01 07:00:53;;;;;;;14.35;10.88;;;;;;;19.08;62.22;95059.84;5006117;28;20553;-67
2022/06/01 07:03:19;;;;;;;13.73;10.38;;;;;;;19.11;62.21;95059.47;5000753;28;20234;-68
2022/06/01 07:08:30;;;;;;;15.73;9.52;;;;;;;19.19;61.80;95063.75;5001411;28;20325;-66
2022/06/01 07:10:57;;;;;;;15.70;10.63;;;;;;;19.34;61.80;95055.56;4999926;28;20231;-63
2022/06/01 07:13:23;;;;;;;14.88;10.77;;;;;;;19.31;62.26;95067.44;5002599;28;20230;-63
2022/06/01 07:15:48;;;;;;;14.10;11.30;;;;;;;19.52;61.90;95062.94;4999329;28;20210;-64
2022/06/01 07:18:14;;;;;;;13.80;10.57;;;;;;;19.55;61.19;95063.34;5003806;28;20222;-62
2022/06/01 07:20:40;;;;;;;11.90;9.55;;;;;;;19.49;61.83;95063.38;5002949;28;20254;-61
2022/06/01 07:23:06;;;;;;;13.15;10.73;;;;;;;19.59;62.10;95061.06;5002932;28;20238;-64
2022/06/01 07:25:32;;;;;;;20.05;11.98;;;;;;;19.73;60.90;95056.59;5000898;28;20203;-65
2022/06/01 07:27:57;;;;;;;16.05;12.15;;;;;;;19.69;60.75;95061.50;5000272;28;20249;-60
2022/06/01 07:30:23;;;;;;;16.45;13.07;;;;;;;19.67;61.28;95058.22;4996298;28;20224;-60
2022/06/01 07:32:49;;;;;;;15.82;11.75;;;;;;;19.71;61.24;95059.47;4995445;28;20444;-62
2022/06/01 07:35:16;;;;;;;15.35;11.98;;;;;;;19.78;60.98;95062.97;4998093;28;20238;-64
2022/06/01 07:43:13;;;;;;;15.10;13.45;;;;;;;19.98;62.12;95057.56;5002425;28;20220;-66
2022/06/01 07:45:43;;;;;;;13.68;12.18;;;;;;;20.08;62.06;95059.81;5002032;28;20232;-62
2022/06/01 07:48:09;;;;;;;17.27;14.55;;;;;;;20.15;61.79;95052.59;5001676;28;20269;-66
2022/06/01 07:50:35;;;;;;;17.63;13.57;;;;;;;20.22;61.60;95053.38;4997173;28;20353;-64
2022/06/01 07:53:03;;;;;;;18.15;13.95;;;;;;;20.08;60.90;95048.31;4982727;28;20238;-65
2022/06/01 07:55:29;;;;;;;17.85;14.55;;;;;;;20.26;60.97;95051.94;4978698;28;20225;-65
2022/06/01 07:57:55;;;;;;;14.95;12.85;;;;;;;20.12;61.46;95053.00;4981441;28;20208;-62
2022/06/01 08:00:21;;;;;;;14.45;11.98;;;;;;;20.05;61.57;95055.72;4995307;28;20258;-66
2022/06/01 08:02:47;;;;;;;15.52;12.48;;;;;;;20.18;60.73;95056.69;4999551;28;20233;-67
2022/06/01 08:05:15;;;;;;;14.50;11.23;;;;;;;20.19;61.49;95051.16;5035657;28;20514;-63
2022/06/01 08:07:43;;;;;;;15.45;11.00;;;;;;;20.20;61.13;95052.78;4997541;28;20238;-61
2022/06/01 08:10:11;;;;;;;14.90;10.85;;;;;;;20.32;60.37;95055.63;4998992;28;20745;-65
2022/06/01 08:15:39;;;;;;;13.68;10.32;;;;;;;20.40;61.00;95049.22;4962147;28;20277;-61
2022/06/01 08:18:05;;;;;;;13.48;9.93;;;;;;;20.46;60.35;95043.84;4962285;28;20236;-67
2022/06/01 08:20:31;;;;;;;15.15;10.38;;;;;;;20.58;60.04;95046.72;4959586;28;20236;-67
2022/06/01 08:22:57;;;;;;;11.38;9.43;;;;;;;20.69;59.70;95050.56;4945787;28;20228;-67
2022/06/01 08:25:23;;;;;;;13.23;10.15;;;;;;;20.77;59.04;95054.81;4948399;28;20307;-63
2022/06/01 08:27:49;;;;;;;16.33;9.95;;;;;;;20.79;58.61;95052.75;4947095;28;20366;-65
2022/06/01 08:30:17;;;;;;;11.60;8.98;;;;;;;20.83;58.05;95056.66;4944744;28;20244;-68
2022/06/01 08:32:43;;;;;;;14.85;9.50;;;;;;;20.87;58.26;95055.19;4965329;28;20330;-63
2022/06/01 08:35:10;;;;;;;12.88;9.38;;;;;;;21.01;58.26;95055.91;4947231;28;20607;-63
2022/06/01 08:37:36;;;;;;;10.23;7.95;;;;;;;21.05;58.16;95051.78;4948712;28;20215;-68
2022/06/01 08:40:05;;;;;;;13.88;10.15;;;;;;;21.25;57.14;95048.94;4964228;28;20267;-67
2022/06/01 08:42:32;;;;;;;14.93;8.95;;;;;;;21.41;56.63;95051.16;4946550;28;20262;-67
2022/06/01 08:45:06;;;;;;;10.13;8.05;;;;;;;21.44;56.12;95050.72;4964914;28;20693;-66
2022/06/01 08:47:35;;;;;;;11.85;10.52;;;;;;;21.49;55.73;95042.84;4943606;28;20295;-65
2022/06/01 08:50:07;;;;;;;10.30;8.70;;;;;;;21.61;55.68;95044.81;4972762;28;20222;-65
2022/06/01 08:52:33;;;;;;;13.43;9.02;;;;;;;21.51;55.91;95043.44;5004197;28;20211;-65
2022/06/01 08:54:58;;;;;;;13.02;8.63;;;;;;;21.66;55.51;95053.00;5004689;28;20216;-65
2022/06/01 08:57:28;;;;;;;10.43;7.53;;;;;;;21.63;55.19;95045.41;5001998;28;20219;-65
2022/06/01 08:59:56;;;;;;;13.35;8.95;;;;;;;21.67;54.26;95043.91;5001827;28;20233;-67
2022/06/01 09:02:47;;;;;;;11.13;8.05;;;;;;;21.79;54.40;95050.19;5003861;28;20272;-62
2022/06/01 09:05:29;;;;;;;16.67;8.27;;;;;;;21.93;55.27;95042.84;5005563;28;20229;-60
2022/06/01 09:08:07;;;;;;;10.05;7.68;;;;;;;21.96;55.38;95037.03;5003212;28;20234;-64
2022/06/01 09:10:57;;;;;;;13.93;8.02;;;;;;;22.15;54.61;95040.53;5001907;28;20740;-63
2022/06/01 09:13:44;;;;;;;7.70;6.95;;;;;;;22.18;53.75;95040.09;5018913;28;20199;-64
2022/06/01 09:16:20;;;;;;;10.73;6.85;;;;;;;22.13;53.53;95037.25;5004815;28;20213;-67
2022/06/01 09:18:52;;;;;;;8.82;6.85;;;;;;;22.20;52.55;95038.88;5033719;28;20234;-66
2022/06/01 09:24:14;;;;;;;8.68;7.47;;;;;;;22.32;51.88;95036.28;5003934;28;20229;-67
2022/06/01 09:27:05;;;;;;;7.78;6.68;;;;;;;22.33;53.11;95032.53;4999793;28;20223;-66
2022/06/01 09:29:34;;;;;;;7.70;6.38;;;;;;;22.55;53.36;95037.41;4991718;28;20701;-65
2022/06/01 09:32:06;;;;;;;9.52;6.25;;;;;;;22.70;51.17;95021.78;5003647;28;20226;-68
2022/06/01 09:34:35;;;;;;;11.77;5.82;;;;;;;22.83;50.82;95024.25;5000397;28;20234;-61
2022/06/01 09:37:18;;;;;;;9.77;6.30;;;;;;;23.01;50.79;95022.59;5007489;28;20211;-62
2022/06/01 09:39:56;;;;;;;8.25;5.88;;;;;;;23.19;47.71;95019.84;5009267;28;20225;-65
2022/06/01 09:42:26;;;;;;;9.10;5.20;;;;;;;23.33;46.19;95026.66;4992075;28;20586;-61
2022/06/01 09:44:55;;;;;;;8.20;5.30;;;;;;;23.40;45.19;95015.78;5001540;28;20239;-67
2022/06/01 09:47:34;;;;;;;9.68;5.00;;;;;;;23.54;44.98;95021.75;5001954;28;20234;-61
2022/06/01 09:50:00;;;;;;;8.50;5.15;;;;;;;23.57;43.87;95015.91;4997481;28;20231;-66
2022/06/01 09:52:33;;;;;;;7.32;4.75;;;;;;;23.75;43.27;95017.72;5001868;28;20566;-63
2022/06/01 09:55:30;;;;;;;7.80;4.95;;;;;;;23.94;43.55;95016.53;4998460;28;20210;-68
2022/06/01 09:58:08;;;;;;;10.35;4.45;;;;;;;24.17;43.57;95010.31;5001661;28;20249;-66
2022/06/01 10:06:20;;;;;;;5.50;3.80;;;;;;;24.41;39.08;95005.69;5018500;28;20253;-63
2022/06/01 10:09:19;;;;;;;9.02;3.70;;;;;;;24.52;37.83;94996.00;5017905;28;20892;-64
2022/06/01 10:11:47;;;;;;;5.63;3.63;;;;;;;24.56;39.27;95004.38;4996294;28;20233;-68
2022/06/01 10:14:32;;;;;;;6.82;3.97;;;;;;;24.79;40.55;95006.16;5000400;28;20687;-61
2022/06/01 10:17:21;;;;;;;5.80;3.85;;;;;;;25.13;39.02;95014.28;5004097;28;20305;-65
2022/06/01 10:20:10;;;;;;;5.47;3.80;;;;;;;25.21;38.79;95012.06;5002262;28;20312;-64
2022/06/01 10:22:40;;;;;;;4.70;3.70;;;;;;;25.39;38.56;95010.19;4957621;28;20302;-62
2022/06/01 10:25:29;;;;;;;5.32;3.30;;;;;;;25.51;36.96;95005.53;4966729;28;20218;-65
2022/06/01 10:28:09;;;;;;;6.00;3.28;;;;;;;25.57;35.16;95001.06;4980545;28;20223;-66
2022/06/01 10:30:41;;;;;;;6.15;3.65;;;;;;;25.63;34.95;95005.44;4963117;28;20241;-67
2022/06/01 10:33:24;;;;;;;4.75;3.08;;;;;;;25.62;32.04;95001.13;4984150;28;20278;-67
2022/06/01 10:36:04;;;;;;;5.78;2.80;;;;;;;25.64;33.21;95001.72;4935289;28;20229;-64
2022/06/01 10:38:41;;;;;;;6.35;2.90;;;;;;;25.73;34.00;95001.03;4922459;28;20236;-63
2022/06/01 10:41:40;;;;;;;7.72;2.85;;;;;;;25.79;34.25;95004.59;4924852;28;20639;-64
2022/06/01 10:44:15;;;;;;;5.47;3.15;;;;;;;25.98;34.72;94996.28;4936834;28;20230;-65
2022/06/01 10:47:03;;;;;;;4.25;3.40;;;;;;;26.26;33.36;94993.44;4920679;28;20243;-64
2022/06/01 10:50:00;;;;;;;5.78;3.30;;;;;;;26.38;33.33;94998.69;4941518;28;20270;-66
2022/06/01 10:52:45;;;;;;;7.93;3.50;;;;;;;26.53;33.83;94992.69;4926305;28;20831;-62
2022/06/01 10:55:16;;;;;;;7.03;3.42;;;;;;;26.72;33.11;94991.28;4960113;28;20402;-63
2022/06/01 10:57:45;;;;;;;3.55;3.10;;;;;;;26.82;31.18;94985.19;4956037;28;20252;-66
2022/06/01 11:00:16;;;;;;;7.60;3.53;;;;;;;26.79;31.03;94983.81;4965549;28;20298;-63
2022/06/01 11:03:28;;;;;;;9.18;2.72;;;;;;;26.76;30.29;94975.44;4983902;28;20284;-62
2022/06/01 11:06:11;;;;;;;6.00;3.10;;;;;;;26.79;30.95;94981.13;5022558;28;20256;-66
2022/06/01 11:08:49;;;;;;;7.20;2.65;;;;;;;26.93;30.18;94976.13;5022639;28;20256;-64
2022/06/01 11:11:29;;;;;;;6.03;2.40;;;;;;;27.03;30.08;94980.81;5022278;28;20247;-62
2022/06/01 11:13:57;;;;;;;5.55;3.13;;;;;;;27.16;30.70;94971.47;5025185;28;20537;-62
2022/06/01 11:16:33;;;;;;;5.80;3.10;;;;;;;27.32;31.92;94972.44;5038611;28;20379;-64
2022/06/01 11:19:27;;;;;;;5.75;2.97;;;;;;;27.40;31.18;94962.00;5040895;28;20204;-66
2022/06/01 11:22:18;;;;;;;6.05;3.03;;;;;;;27.67;31.18;94961.09;5020797;28;20256;-67
2022/06/01 11:25:08;;;;;;;4.55;3.30;;;;;;;27.77;30.02;94969.25;5021448;28;20252;-63
2022/06/01 11:28:19;;;;;;;9.02;3.47;;;;;;;27.96;29.94;94963.44;5035399;28;20312;-66
2022/06/01 11:31:13;;;;;;;5.90;3.63;;;;;;;28.29;30.38;94956.84;4984249;28;20226;-69
2022/06/01 11:33:39;;;;;;;3.10;2.58;;;;;;;28.34;28.69;94955.00;4965025;28;20223;-64
2022/06/01 11:36:08;;;;;;;3.10;2.47;;;;;;;28.34;28.97;94955.00;4965398;28;20246;-68
2022/06/01 11:38:46;;;;;;;6.75;3.13;;;;;;;28.44;26.83;94956.13;4966942;28;20231;-66
2022/06/01 11:41:27;;;;;;;5.50;3.03;;;;;;;28.37;27.42;94949.03;4937691;28;20236;-66
2022/06/01 11:43:59;;;;;;;5.03;2.45;;;;;;;28.36;27.12;94954.69;4906552;29;20277;-66
2022/06/01 11:46:39;;;;;;;4.90;3.30;;;;;;;28.45;30.55;94950.47;4907941;28;20741;-65
2022/06/01 11:49:12;;;;;;;4.30;2.40;;;;;;;28.33;25.65;94949.81;4904729;29;20323;-67
2022/06/01 11:51:37;;;;;;;7.60;2.60;;;;;;;28.48;25.29;94936.41;4912127;29;20225;-65
2022/06/01 11:54:29;;;;;;;4.93;2.55;;;;;;;28.57;27.34;94940.22;4905818;29;20701;-63
2022/06/01 11:57:37;;;;;;;4.18;2.40;;;;;;;28.79;26.03;94948.13;4936393;28;20807;-64
2022/06/01 12:00:19;;;;;;;6.75;2.60;;;;;;;28.76;25.14;94942.41;4923534;28;20233;-66
2022/06/01 12:02:53;;;;;;;4.20;2.60;;;;;;;28.56;26.51;94943.19;4920893;28;20309;-64
2022/06/01 12:05:27;;;;;;;8.07;2.67;;;;;;;29.02;25.58;94946.78;4903428;29;20288;-62
2022/06/01 12:08:00;;;;;;;6.72;2.42;;;;;;;29.00;23.72;94942.72;4943880;28;20243;-63
2022/06/01 12:10:26;;;;;;;4.93;2.95;;;;;;;29.44;23.47;94940.31;4982416;28;20279;-67
2022/06/01 12:12:54;;;;;;;3.53;2.47;;;;;;;29.56;23.32;94934.59;5013532;28;20297;-64